createdAt,value
2019-04-19T00:01:55.779Z,101012.40
2019-04-19T00:04:19.680Z,101015.12
2019-04-19T00:06:46.768Z,101014.12
2019-04-19T00:09:26.291Z,101014.25
2019-04-19T00:11:45.728Z,101006.30
2019-04-19T00:14:06.511Z,101005.48
2019-04-19T00:16:32.367Z,101009.09
2019-04-19T00:19:20.078Z,100998.00
2019-04-19T00:21:54.430Z,101005.96
2019-04-19T00:23:54.531Z,101001.33
2019-04-19T00:26:19.362Z,101008.68
2019-04-19T00:28:52.814Z,101006.00
2019-04-19T00:31:26.345Z,101008.68
2019-04-19T00:33:43.406Z,101011.81
2019-04-19T00:36:07.785Z,101016.70
2019-04-19T00:38:43.050Z,101017.89
2019-04-19T00:41:26.906Z,101016.48
2019-04-19T00:44:02.167Z,101017.07
2019-04-19T00:46:30.343Z,101025.88
2019-04-19T00:49:01.110Z,101027.62
2019-04-19T00:51:18.645Z,101024.01
2019-04-19T00:53:43.442Z,101027.35
2019-04-19T00:56:12.449Z,101020.02
2019-04-19T00:58:32.940Z,101017.31
2019-04-19T01:01:04.669Z,101021.58
2019-04-19T01:03:30.552Z,101022.02
2019-04-19T01:05:57.000Z,101009.38
2019-04-19T01:08:21.285Z,101012.67
2019-04-19T01:10:55.185Z,101007.84
2019-04-19T01:13:17.910Z,100997.45
2019-04-19T01:15:51.089Z,101000.95
2019-04-19T01:18:15.310Z,101001.16
2019-04-19T01:20:31.137Z,101002.61
2019-04-19T01:23:03.823Z,101009.08
2019-04-19T01:25:27.157Z,101010.69
2019-04-19T01:27:50.916Z,101020.59
2019-04-19T01:30:24.026Z,101017.31
2019-04-19T01:32:51.364Z,101018.20
2019-04-19T01:35:15.379Z,101026.88
2019-04-19T01:37:37.526Z,101021.74
2019-04-19T01:40:21.532Z,101038.22
2019-04-19T01:42:50.931Z,101039.33
2019-04-19T01:45:40.424Z,101040.55
2019-04-19T01:48:28.442Z,101047.83
2019-04-19T01:51:12.447Z,101046.91
2019-04-19T01:53:39.026Z,101043.36
2019-04-19T01:55:53.859Z,101039.70
2019-04-19T01:58:18.028Z,101042.06
2019-04-19T02:00:49.413Z,101040.28
2019-04-19T02:03:09.800Z,101036.41
2019-04-19T02:05:42.330Z,101050.27
2019-04-19T02:08:07.121Z,101056.37
2019-04-19T02:10:53.100Z,101054.53
2019-04-19T02:13:17.106Z,101056.77
2019-04-19T02:15:41.592Z,101054.00
2019-04-19T02:18:01.210Z,101047.67
2019-04-19T02:20:35.361Z,101058.03
2019-04-19T02:23:01.587Z,101051.98
2019-04-19T02:25:25.292Z,101054.27
2019-04-19T02:27:51.410Z,101060.16
2019-04-19T02:30:29.223Z,101058.38
2019-04-19T02:33:11.900Z,101055.30
2019-04-19T02:35:36.661Z,101066.23
2019-04-19T02:40:45.223Z,101060.11
2019-04-19T02:43:20.487Z,101063.58
2019-04-19T02:48:00.888Z,101071.94
2019-04-19T02:50:43.066Z,101076.33
2019-04-19T02:52:47.314Z,101077.73
2019-04-19T02:58:00.772Z,101079.84
2019-04-19T03:03:09.281Z,101081.11
2019-04-19T03:05:30.076Z,101085.52
2019-04-19T03:07:32.183Z,101085.39
2019-04-19T03:09:58.063Z,101089.14
2019-04-19T03:12:47.200Z,101096.72
2019-04-19T03:15:07.034Z,101096.12
2019-04-19T03:17:35.042Z,101096.61
2019-04-19T03:20:00.916Z,101100.78
2019-04-19T03:22:46.629Z,101096.88
2019-04-19T03:24:56.009Z,101099.58
2019-04-19T03:27:14.811Z,101101.06
2019-04-19T03:29:38.862Z,101102.38
2019-04-19T03:37:06.345Z,101109.49
2019-04-19T03:39:39.715Z,101112.84
2019-04-19T03:42:29.676Z,101116.91
2019-04-19T03:44:35.871Z,101109.62
2019-04-19T03:49:45.057Z,101126.72
2019-04-19T03:52:15.588Z,101124.16
2019-04-19T03:54:23.637Z,101113.97
2019-04-19T03:56:53.185Z,101128.33
2019-04-19T03:59:02.734Z,101126.55
2019-04-19T04:01:34.781Z,101126.84
2019-04-19T04:04:03.067Z,101132.63
2019-04-19T04:06:29.729Z,101134.18
2019-04-19T04:08:58.235Z,101131.64
2019-04-19T04:11:29.526Z,101135.09
2019-04-19T04:14:12.540Z,101141.73
2019-04-19T04:16:47.126Z,101133.62
2019-04-19T04:19:10.313Z,101135.14
2019-04-19T04:21:42.996Z,101139.27
2019-04-19T04:24:13.058Z,101150.98
2019-04-19T04:26:39.096Z,101147.90
2019-04-19T04:29:07.710Z,101149.20
2019-04-19T04:31:34.281Z,101155.84
2019-04-19T04:34:03.016Z,101160.13
2019-04-19T04:36:36.500Z,101158.92
2019-04-19T04:38:46.216Z,101169.77
2019-04-19T04:41:14.208Z,101164.30
2019-04-19T04:43:48.509Z,101169.20
2019-04-19T04:46:33.755Z,101167.06
2019-04-19T04:48:58.285Z,101178.75
2019-04-19T04:51:29.812Z,101182.28
2019-04-19T04:53:45.210Z,101177.98
2019-04-19T04:56:15.624Z,101177.84
2019-04-19T04:58:45.810Z,101181.08
2019-04-19T05:01:13.777Z,101184.33
2019-04-19T05:03:54.385Z,101180.34
2019-04-19T05:06:21.621Z,101184.33
2019-04-19T05:08:45.128Z,101192.45
2019-04-19T05:11:16.246Z,101197.02
2019-04-19T05:13:48.334Z,101194.97
2019-04-19T05:16:18.307Z,101201.00
2019-04-19T05:18:36.065Z,101206.08
2019-04-19T05:20:55.521Z,101205.73
2019-04-19T05:23:28.589Z,101209.84
2019-04-19T05:26:21.359Z,101211.48
2019-04-19T05:28:21.873Z,101217.09
2019-04-19T05:30:41.825Z,101220.17
2019-04-19T05:33:09.904Z,101221.48
2019-04-19T05:35:47.676Z,101231.38
2019-04-19T05:38:17.590Z,101229.25
2019-04-19T05:40:46.448Z,101222.92
2019-04-19T05:43:37.174Z,101220.34
2019-04-19T05:45:58.487Z,101227.64
2019-04-19T05:48:08.153Z,101220.71
2019-04-19T05:50:39.404Z,101223.30
2019-04-19T05:53:06.880Z,101226.11
2019-04-19T05:55:19.126Z,101225.33
2019-04-19T05:57:56.622Z,101214.58
2019-04-19T06:00:25.828Z,101226.35
2019-04-19T06:02:53.367Z,101224.19
2019-04-19T06:05:32.062Z,101226.19
2019-04-19T06:07:45.721Z,101224.31
2019-04-19T06:09:58.156Z,101226.69
2019-04-19T06:12:28.720Z,101228.04
2019-04-19T06:15:15.332Z,101232.05
2019-04-19T06:17:50.969Z,101224.97
2019-04-19T06:20:15.992Z,101226.81
2019-04-19T06:22:50.014Z,101227.61
2019-04-19T06:25:14.424Z,101224.56
2019-04-19T06:28:00.777Z,101226.35
2019-04-19T06:30:13.373Z,101229.23
2019-04-19T06:32:33.720Z,101226.67
2019-04-19T06:34:53.959Z,101215.53
2019-04-19T06:37:14.441Z,101222.67
2019-04-19T06:39:35.065Z,101218.00
2019-04-19T06:42:05.877Z,101224.38
2019-04-19T06:44:51.820Z,101221.95
2019-04-19T06:47:08.371Z,101226.87
2019-04-19T06:49:25.142Z,101224.29
2019-04-19T06:51:57.477Z,101222.00
2019-04-19T06:54:19.283Z,101224.22
2019-04-19T06:56:46.735Z,101225.70
2019-04-19T06:59:18.133Z,101223.77
2019-04-19T07:01:42.197Z,101226.58
2019-04-19T07:04:02.105Z,101238.58
2019-04-19T07:06:44.319Z,101229.32
2019-04-19T07:09:21.517Z,101229.69
2019-04-19T07:11:46.559Z,101233.19
2019-04-19T07:14:00.982Z,101231.72
2019-04-19T07:16:35.017Z,101232.73
2019-04-19T07:18:52.077Z,101236.02
2019-04-19T07:21:29.016Z,101232.56
2019-04-19T07:23:54.703Z,101229.92
2019-04-19T07:26:20.382Z,101233.70
2019-04-19T07:28:33.632Z,101231.75
2019-04-19T07:31:01.108Z,101225.23
2019-04-19T07:33:31.641Z,101234.54
2019-04-19T07:36:22.369Z,101235.70
2019-04-19T07:38:53.378Z,101241.11
2019-04-19T07:41:02.948Z,101247.26
2019-04-19T07:46:03.002Z,101251.61
2019-04-19T07:48:18.466Z,101251.41
2019-04-19T07:50:50.012Z,101249.05
2019-04-19T07:53:08.308Z,101246.08
2019-04-19T07:55:43.271Z,101252.68
2019-04-19T07:58:30.113Z,101255.80
2019-04-19T08:00:52.374Z,101249.10
2019-04-19T08:03:25.965Z,101252.15
2019-04-19T08:05:52.923Z,101251.89
2019-04-19T08:11:01.557Z,101251.56
2019-04-19T08:13:16.836Z,101256.00
2019-04-19T08:15:40.792Z,101255.73
2019-04-19T08:27:33.250Z,101252.27
2019-04-19T08:29:59.182Z,101257.72
2019-04-19T08:32:17.440Z,101260.82
2019-04-19T08:34:52.035Z,101262.49
2019-04-19T08:37:19.771Z,101266.08
2019-04-19T08:39:49.938Z,101266.91
2019-04-19T08:42:21.205Z,101263.09
2019-04-19T08:44:43.006Z,101259.78
2019-04-19T08:47:28.727Z,101263.74
2019-04-19T08:49:51.971Z,101255.27
2019-04-19T08:52:25.669Z,101259.11
2019-04-19T08:55:09.397Z,101261.73
2019-04-19T08:57:18.826Z,101262.51
2019-04-19T09:00:03.456Z,101256.02
2019-04-19T09:02:24.821Z,101249.58
2019-04-19T09:04:50.720Z,101244.66
2019-04-19T09:09:59.976Z,101260.11
2019-04-19T09:12:12.082Z,101253.77
2019-04-19T09:14:39.786Z,101257.73
2019-04-19T09:17:13.079Z,101245.20
2019-04-19T09:19:55.018Z,101243.75
2019-04-19T09:21:55.900Z,101257.59
2019-04-19T09:24:15.660Z,101252.92
2019-04-19T09:26:56.321Z,101240.27
2019-04-19T09:29:31.061Z,101255.45
2019-04-19T09:31:43.954Z,101248.09
2019-04-19T09:34:05.763Z,101242.93
2019-04-19T09:36:33.401Z,101237.20
2019-04-19T09:39:08.446Z,101247.98
2019-04-19T09:41:24.719Z,101249.59
2019-04-19T09:43:54.507Z,101248.22
2019-04-19T09:46:10.572Z,101250.80
2019-04-19T09:48:55.370Z,101247.08
2019-04-19T09:51:24.354Z,101244.13
2019-04-19T09:53:55.762Z,101239.30
2019-04-19T09:56:17.399Z,101250.24
2019-04-19T09:58:38.541Z,101246.44
2019-04-19T10:01:04.100Z,101246.78
2019-04-19T10:03:38.163Z,101238.47
2019-04-19T10:05:58.380Z,101238.62
2019-04-19T10:08:24.066Z,101243.45
2019-04-19T10:10:51.690Z,101241.27
2019-04-19T10:13:17.549Z,101232.28
2019-04-19T10:15:54.406Z,101232.19
2019-04-19T10:18:20.846Z,101230.95
2019-04-19T10:20:55.106Z,101227.92
2019-04-19T10:23:23.008Z,101224.63
2019-04-19T10:25:54.944Z,101224.44
2019-04-19T10:28:16.065Z,101222.79
2019-04-19T10:30:50.755Z,101228.18
2019-04-19T10:33:28.155Z,101231.77
2019-04-19T10:35:45.449Z,101227.16
2019-04-19T10:38:11.673Z,101228.45
2019-04-19T10:40:37.703Z,101224.45
2019-04-19T10:43:05.179Z,101220.59
2019-04-19T10:45:32.036Z,101219.02
2019-04-19T10:47:57.934Z,101220.37
2019-04-19T10:50:39.567Z,101219.95
2019-04-19T10:52:58.531Z,101226.00
2019-04-19T10:55:28.517Z,101222.61
2019-04-19T10:57:55.126Z,101222.73
2019-04-19T11:00:21.861Z,101215.34
2019-04-19T11:02:49.590Z,101219.02
2019-04-19T11:05:16.466Z,101212.51
2019-04-19T11:07:43.591Z,101210.98
2019-04-19T11:10:09.720Z,101208.70
2019-04-19T11:12:36.487Z,101200.88
2019-04-19T11:15:02.587Z,101207.22
2019-04-19T11:17:29.705Z,101202.41
2019-04-19T11:20:13.942Z,101204.41
2019-04-19T11:22:23.729Z,101193.25
2019-04-19T11:24:50.038Z,101200.42
2019-04-19T11:27:17.063Z,101197.84
2019-04-19T11:29:42.821Z,101193.69
2019-04-19T11:32:15.824Z,101189.27
2019-04-19T11:34:45.119Z,101188.66
2019-04-19T11:37:13.503Z,101194.54
2019-04-19T11:39:39.092Z,101188.39
2019-04-19T11:42:05.308Z,101190.86
2019-04-19T11:44:32.651Z,101182.53
2019-04-19T11:46:58.327Z,101187.49
2019-04-19T11:49:33.221Z,101190.34
2019-04-19T11:51:51.698Z,101194.98
2019-04-19T11:54:18.727Z,101188.48
2019-04-19T11:56:57.319Z,101191.05
2019-04-19T11:59:34.278Z,101197.27
2019-04-19T12:01:52.150Z,101187.58
2019-04-19T12:04:18.465Z,101183.91
2019-04-19T12:06:45.046Z,101182.86
2019-04-19T12:09:12.426Z,101178.81
2019-04-19T12:11:38.574Z,101175.41
2019-04-19T12:14:05.917Z,101175.41
2019-04-19T12:16:32.890Z,101180.92
2019-04-19T12:19:00.050Z,101171.32
2019-04-19T12:21:25.502Z,101172.77
2019-04-19T12:23:52.945Z,101160.02
2019-04-19T12:26:19.870Z,101164.05
2019-04-19T12:28:45.902Z,101155.64
2019-04-19T12:31:13.622Z,101151.95
2019-04-19T12:33:39.571Z,101163.37
2019-04-19T12:36:05.930Z,101162.11
2019-04-19T12:38:33.343Z,101160.41
2019-04-19T12:40:59.503Z,101161.44
2019-04-19T12:43:26.276Z,101155.77
2019-04-19T12:45:54.200Z,101157.55
2019-04-19T12:48:19.752Z,101159.14
2019-04-19T12:50:47.352Z,101150.27
2019-04-19T12:53:13.204Z,101144.63
2019-04-19T12:55:40.003Z,101152.28
2019-04-19T12:58:07.996Z,101145.34
2019-04-19T13:00:41.724Z,101136.88
2019-04-19T13:03:12.053Z,101137.06
2019-04-19T13:05:43.518Z,101138.77
2019-04-19T13:08:09.488Z,101143.61
2019-04-19T13:10:35.615Z,101139.08
2019-04-19T13:13:03.618Z,101129.65
2019-04-19T13:15:29.494Z,101129.84
2019-04-19T13:17:56.042Z,101116.08
2019-04-19T13:20:27.521Z,101133.23
2019-04-19T13:22:50.452Z,101117.23
2019-04-19T13:25:17.291Z,101121.66
2019-04-19T13:27:49.980Z,101128.66
2019-04-19T13:30:20.451Z,101131.27
2019-04-19T13:32:36.254Z,101128.70
2019-04-19T13:35:03.485Z,101117.75
2019-04-19T13:37:41.046Z,101108.30
2019-04-19T13:40:12.228Z,101111.87
2019-04-19T13:42:39.051Z,101104.61
2019-04-19T13:45:13.960Z,101106.95
2019-04-19T13:47:31.607Z,101105.48
2019-04-19T13:49:58.403Z,101105.58
2019-04-19T13:52:32.487Z,101111.30
2019-04-19T13:54:58.849Z,101100.62
2019-04-19T13:57:25.839Z,101114.27
2019-04-19T13:59:58.425Z,101105.16
2019-04-19T14:02:20.515Z,101100.22
2019-04-19T14:04:45.454Z,101103.12
2019-04-19T14:07:12.632Z,101096.79
2019-04-19T14:09:39.289Z,101100.62
2019-04-19T14:12:07.058Z,101109.64
2019-04-19T14:14:32.936Z,101102.68
2019-04-19T14:16:59.887Z,101106.88
2019-04-19T14:19:26.960Z,101100.16
2019-04-19T14:21:55.038Z,101107.20
2019-04-19T14:24:21.735Z,101087.56
2019-04-19T14:26:52.121Z,101091.86
2019-04-19T14:29:15.362Z,101098.52
2019-04-19T14:31:42.256Z,101087.92
2019-04-19T14:34:09.107Z,101087.16
2019-04-19T14:36:36.179Z,101087.50
2019-04-19T14:39:04.444Z,101087.02
2019-04-19T14:41:30.033Z,101074.52
2019-04-19T14:43:57.503Z,101071.19
2019-04-19T14:46:24.797Z,101067.18
2019-04-19T14:48:50.997Z,101078.17
2019-04-19T14:51:24.617Z,101073.70
2019-04-19T14:53:45.005Z,101073.05
2019-04-19T14:56:11.438Z,101066.83
2019-04-19T14:58:37.623Z,101067.11
2019-04-19T15:01:15.137Z,101065.14
2019-04-19T15:03:43.122Z,101062.31
2019-04-19T15:06:10.110Z,101064.54
2019-04-19T15:08:37.323Z,101062.59
2019-04-19T15:11:03.254Z,101064.83
2019-04-19T15:13:30.650Z,101049.15
2019-04-19T15:15:56.466Z,101057.42
2019-04-19T15:18:23.358Z,101053.23
2019-04-19T15:20:58.156Z,101053.05
2019-04-19T15:23:18.297Z,101060.95
2019-04-19T15:25:44.607Z,101054.09
2019-04-19T15:28:11.064Z,101066.00
2019-04-19T15:30:37.551Z,101053.28
2019-04-19T15:33:04.557Z,101046.86
2019-04-19T15:35:31.876Z,101043.73
2019-04-19T15:37:58.490Z,101046.33
2019-04-19T15:40:25.816Z,101047.02
2019-04-19T15:42:52.775Z,101048.20
2019-04-19T15:45:20.882Z,101047.45
2019-04-19T15:47:48.559Z,101043.52
2019-04-19T15:50:14.070Z,101041.09
2019-04-19T15:52:42.021Z,101041.17
2019-04-19T15:55:08.172Z,101034.41
2019-04-19T15:57:34.785Z,101039.03
2019-04-19T16:00:02.451Z,101036.05
2019-04-19T16:02:44.266Z,101037.64
2019-04-19T16:05:30.185Z,101035.20
2019-04-19T16:08:04.846Z,101029.32
2019-04-19T16:10:42.515Z,101033.09
2019-04-19T16:13:07.982Z,101033.68
2019-04-19T16:15:36.066Z,101033.83
2019-04-19T16:18:02.103Z,101027.81
2019-04-19T16:20:29.359Z,101028.25
2019-04-19T16:22:56.258Z,101030.70
2019-04-19T16:25:23.277Z,101039.22
2019-04-19T16:27:50.104Z,101021.67
2019-04-19T16:30:16.857Z,101017.12
2019-04-19T16:32:43.960Z,101020.38
2019-04-19T16:35:12.015Z,101031.64
2019-04-19T16:37:37.607Z,101041.05
2019-04-19T16:40:04.838Z,101039.20
2019-04-19T16:42:31.555Z,101040.66
2019-04-19T16:44:59.576Z,101039.61
2019-04-19T16:47:25.041Z,101039.11
2019-04-19T16:49:52.178Z,101039.55
2019-04-19T16:52:18.636Z,101035.02
2019-04-19T16:54:46.265Z,101027.34
2019-04-19T16:57:20.392Z,101038.28
2019-04-19T16:59:39.724Z,101038.05
2019-04-19T17:02:06.523Z,101033.97
2019-04-19T17:04:32.496Z,101032.52
2019-04-19T17:06:58.902Z,101030.65
2019-04-19T17:09:26.780Z,101036.09
2019-04-19T17:11:53.581Z,101037.01
2019-04-19T17:14:21.000Z,101042.36
2019-04-19T17:17:00.346Z,101042.48
2019-04-19T17:19:34.883Z,101047.19
2019-04-19T17:22:08.992Z,101056.41
2019-04-19T17:24:27.237Z,101055.08
2019-04-19T17:26:55.262Z,101053.36
2019-04-19T17:29:20.911Z,101058.99
2019-04-19T17:31:47.968Z,101059.05
2019-04-19T17:34:14.582Z,101055.49
2019-04-19T17:36:42.181Z,101055.90
2019-04-19T17:39:08.780Z,101053.86
2019-04-19T17:41:36.474Z,101052.30
2019-04-19T17:44:03.633Z,101058.10
2019-04-19T17:46:29.095Z,101058.69
2019-04-19T17:48:56.891Z,101065.64
2019-04-19T17:51:24.769Z,101066.83
2019-04-19T17:53:52.041Z,101072.72
2019-04-19T17:56:17.360Z,101073.70
2019-04-19T17:58:44.360Z,101076.67
2019-04-19T18:01:10.402Z,101075.28
2019-04-19T18:03:37.450Z,101076.21
2019-04-19T18:06:04.028Z,101085.66
2019-04-19T18:08:32.829Z,101089.77
2019-04-19T18:10:59.082Z,101087.98
2019-04-19T18:13:25.370Z,101093.23
2019-04-19T18:15:51.225Z,101101.59
2019-04-19T18:18:17.958Z,101095.64
2019-04-19T18:20:50.014Z,101098.46
2019-04-19T18:23:24.114Z,101108.80
2019-04-19T18:25:41.415Z,101110.25
2019-04-19T18:28:08.719Z,101113.02
2019-04-19T18:30:33.685Z,101111.92
2019-04-19T18:33:04.654Z,101112.95
2019-04-19T18:35:33.763Z,101115.37
2019-04-19T18:37:59.018Z,101112.39
2019-04-19T18:40:25.260Z,101117.12
2019-04-19T18:43:09.755Z,101115.55
2019-04-19T18:45:24.756Z,101117.64
2019-04-19T18:47:47.198Z,101120.97
2019-04-19T18:50:12.787Z,101116.70
2019-04-19T18:52:50.670Z,101116.27
2019-04-19T18:55:10.635Z,101123.69
2019-04-19T18:57:38.316Z,101125.42
2019-04-19T19:00:02.005Z,101123.59
2019-04-19T19:02:28.505Z,101125.64
2019-04-19T19:05:00.280Z,101129.39
2019-04-19T19:07:23.729Z,101133.62
2019-04-19T19:09:50.040Z,101133.67
2019-04-19T19:12:15.580Z,101136.35
2019-04-19T19:14:43.634Z,101135.09
2019-04-19T19:17:13.633Z,101142.16
2019-04-19T19:19:36.555Z,101148.14
2019-04-19T19:22:02.149Z,101146.63
2019-04-19T19:24:49.327Z,101150.44
2019-04-19T19:27:05.391Z,101154.75
2019-04-19T19:29:22.434Z,101159.44
2019-04-19T19:31:47.873Z,101159.52
2019-04-19T19:34:20.568Z,101161.22
2019-04-19T19:36:46.591Z,101165.73
2019-04-19T19:39:17.556Z,101172.94
2019-04-19T19:42:27.304Z,101180.71
2019-04-19T19:44:13.398Z,101198.03
2019-04-19T19:47:06.895Z,101198.78
2019-04-19T19:51:39.489Z,101190.08
2019-04-19T19:54:38.936Z,101179.90
2019-04-19T19:56:43.182Z,101179.72
2019-04-19T19:59:02.509Z,101186.68
2019-04-19T20:01:28.911Z,101184.41
2019-04-19T20:03:46.764Z,101184.36
2019-04-19T20:06:14.166Z,101186.19
2019-04-19T20:08:39.737Z,101183.88
2019-04-19T20:11:01.976Z,101182.56
2019-04-19T20:13:35.969Z,101181.75
2019-04-19T20:15:56.649Z,101182.07
2019-04-19T20:18:29.659Z,101183.56
2019-04-19T20:20:48.797Z,101190.13
2019-04-19T20:23:23.298Z,101174.99
2019-04-19T20:25:50.722Z,101178.26
2019-04-19T20:28:09.241Z,101176.62
2019-04-19T20:30:38.865Z,101176.61
2019-04-19T20:33:03.732Z,101173.00
2019-04-19T20:35:29.872Z,101173.59
2019-04-19T20:38:00.869Z,101173.92
2019-04-19T20:40:25.807Z,101175.91
2019-04-19T20:43:09.584Z,101178.09
2019-04-19T20:45:28.077Z,101174.00
2019-04-19T20:47:49.302Z,101177.97
2019-04-19T20:50:21.623Z,101174.61
2019-04-19T20:52:48.664Z,101185.36
2019-04-19T20:55:25.045Z,101197.31
2019-04-19T20:57:49.823Z,101204.19
2019-04-19T21:00:06.040Z,101225.67
2019-04-19T21:02:35.610Z,101227.33
2019-04-19T21:05:01.433Z,101232.70
2019-04-19T21:07:29.671Z,101237.06
2019-04-19T21:09:51.894Z,101241.20
2019-04-19T21:12:24.049Z,101235.02
2019-04-19T21:14:46.744Z,101244.94
2019-04-19T21:17:12.472Z,101239.30
2019-04-19T21:19:43.103Z,101245.11
2019-04-19T21:22:06.440Z,101244.17
2019-04-19T21:24:44.453Z,101245.14
2019-04-19T21:27:06.007Z,101245.41
2019-04-19T21:29:30.184Z,101256.63
2019-04-19T21:31:55.922Z,101251.77
2019-04-19T21:34:24.711Z,101245.59
2019-04-19T21:36:52.510Z,101248.84
2019-04-19T21:39:16.383Z,101241.30
2019-04-19T21:41:41.854Z,101248.70
2019-04-19T21:44:10.242Z,101248.70
2019-04-19T21:46:34.631Z,101237.89
2019-04-19T21:49:02.604Z,101243.23
2019-04-19T21:51:31.828Z,101248.17
2019-04-19T21:53:54.425Z,101249.69
2019-04-19T21:56:20.603Z,101250.89
2019-04-19T21:58:52.276Z,101264.08
2019-04-19T22:01:15.893Z,101262.59
2019-04-19T22:03:40.731Z,101258.20
2019-04-19T22:06:17.686Z,101257.43
2019-04-19T22:08:36.702Z,101260.97
2019-04-19T22:11:00.539Z,101255.41
2019-04-19T22:13:33.242Z,101259.19
2019-04-19T22:15:56.772Z,101261.55
2019-04-19T22:18:21.465Z,101268.03
2019-04-19T22:20:54.025Z,101269.05
2019-04-19T22:23:14.836Z,101260.64
2019-04-19T22:25:49.216Z,101272.44
2019-04-19T22:28:07.690Z,101260.25
2019-04-19T22:30:40.683Z,101269.26
2019-04-19T22:33:03.016Z,101274.09
2019-04-19T22:35:29.005Z,101272.09
2019-04-19T22:37:54.722Z,101268.66
2019-04-19T22:40:21.295Z,101266.39
2019-04-19T22:42:56.932Z,101267.09
2019-04-19T22:45:19.140Z,101280.14
2019-04-19T22:47:41.748Z,101280.86
2019-04-19T22:50:10.797Z,101276.09
2019-04-19T22:52:34.973Z,101278.80
2019-04-19T22:55:06.705Z,101262.23
2019-04-19T22:57:37.981Z,101260.97
2019-04-19T22:59:59.420Z,101257.54
2019-04-19T23:02:31.055Z,101255.47
2019-04-19T23:04:57.863Z,101251.13
2019-04-19T23:07:21.225Z,101259.25
2019-04-19T23:09:48.614Z,101268.14
2019-04-19T23:12:14.695Z,101263.41
2019-04-19T23:14:50.521Z,101271.09
2019-04-19T23:17:19.775Z,101254.70
2019-04-19T23:19:46.007Z,101253.34
2019-04-19T23:22:10.122Z,101254.90
2019-04-19T23:24:43.735Z,101251.34
2019-04-19T23:27:15.405Z,101262.59
2019-04-19T23:29:33.032Z,101269.95
2019-04-19T23:31:57.405Z,101267.84
2019-04-19T23:34:23.223Z,101270.61
2019-04-19T23:36:58.709Z,101269.39
2019-04-19T23:39:17.300Z,101280.87
2019-04-19T23:41:43.298Z,101271.59
2019-04-19T23:44:14.250Z,101270.27
2019-04-19T23:46:37.426Z,101270.77
2019-04-19T23:49:08.740Z,101272.73
2019-04-19T23:51:31.375Z,101273.29
2019-04-19T23:53:56.950Z,101279.40
2019-04-19T23:56:34.112Z,101287.00
2019-04-19T23:58:50.429Z,101287.54
